Terminal Aerodrome Forecast
Issued by NWS

Home | Current Version | Previous Version | Text Only | Print | Product List | Glossary On
Versions: 1 2 3 4 5 6 7 8 9 10 11 12 13
000
FTUS43 KLSX 191126
TAFUIN
TAF
KUIN 191126Z 1912/2012 34012KT P6SM OVC040
     FM191500 36009KT P6SM SCT080
     FM200200 03005KT P6SM SKC=

USA.gov is the U.S. government's official web portal to all federal, state and local government web resources and services.